sensor_id;sensor_type;location;lat;lon;timestamp;P1;durP1;ratioP1;P2;durP2;ratioP2
16310;SDS011;8264;48.510;8.872;2022-08-03T00:00:50;5.00;;;4.50;;
16310;SDS011;8264;48.510;8.872;2022-08-03T00:03:17;4.77;;;4.37;;
16310;SDS011;8264;48.510;8.872;2022-08-03T00:05:43;5.40;;;4.90;;
16310;SDS011;8264;48.510;8.872;2022-08-03T00:08:10;5.20;;;4.63;;
16310;SDS011;8264;48.510;8.872;2022-08-03T00:10:36;5.30;;;4.80;;
16310;SDS011;8264;48.510;8.872;2022-08-03T00:13:03;4.73;;;4.27;;
16310;SDS011;8264;48.510;8.872;2022-08-03T00:15:29;6.97;;;4.33;;
16310;SDS011;8264;48.510;8.872;2022-08-03T00:17:57;4.83;;;4.40;;
16310;SDS011;8264;48.510;8.872;2022-08-03T00:20:24;4.70;;;4.30;;
16310;SDS011;8264;48.510;8.872;2022-08-03T00:22:50;4.97;;;4.57;;
16310;SDS011;8264;48.510;8.872;2022-08-03T00:25:17;5.73;;;5.20;;
16310;SDS011;8264;48.510;8.872;2022-08-03T00:27:44;5.20;;;4.70;;
16310;SDS011;8264;48.510;8.872;2022-08-03T00:30:10;5.13;;;4.33;;
16310;SDS011;8264;48.510;8.872;2022-08-03T00:32:37;4.90;;;4.43;;
16310;SDS011;8264;48.510;8.872;2022-08-03T00:35:05;5.00;;;4.60;;
16310;SDS011;8264;48.510;8.872;2022-08-03T00:37:32;4.70;;;4.30;;
16310;SDS011;8264;48.510;8.872;2022-08-03T00:39:59;5.17;;;4.67;;
16310;SDS011;8264;48.510;8.872;2022-08-03T00:42:25;5.70;;;4.17;;
16310;SDS011;8264;48.510;8.872;2022-08-03T00:44:51;4.47;;;4.07;;
16310;SDS011;8264;48.510;8.872;2022-08-03T00:47:18;6.17;;;4.30;;
16310;SDS011;8264;48.510;8.872;2022-08-03T00:49:44;4.50;;;3.90;;
16310;SDS011;8264;48.510;8.872;2022-08-03T00:52:12;5.17;;;4.57;;
16310;SDS011;8264;48.510;8.872;2022-08-03T00:54:40;4.77;;;4.33;;
16310;SDS011;8264;48.510;8.872;2022-08-03T00:57:07;4.40;;;4.00;;
16310;SDS011;8264;48.510;8.872;2022-08-03T00:59:33;5.60;;;4.10;;
16310;SDS011;8264;48.510;8.872;2022-08-03T01:02:02;5.03;;;4.50;;
16310;SDS011;8264;48.510;8.872;2022-08-03T01:04:28;5.67;;;4.27;;
16310;SDS011;8264;48.510;8.872;2022-08-03T01:06:56;4.60;;;4.17;;
16310;SDS011;8264;48.510;8.872;2022-08-03T01:09:31;9.90;;;4.73;;
16310;SDS011;8264;48.510;8.872;2022-08-03T01:12:05;5.20;;;4.70;;
16310;SDS011;8264;48.510;8.872;2022-08-03T01:14:36;6.53;;;5.20;;
16310;SDS011;8264;48.510;8.872;2022-08-03T01:17:07;4.67;;;4.27;;
16310;SDS011;8264;48.510;8.872;2022-08-03T01:19:40;4.90;;;4.40;;
16310;SDS011;8264;48.510;8.872;2022-08-03T01:22:21;5.47;;;4.73;;
16310;SDS011;8264;48.510;8.872;2022-08-03T01:24:59;5.20;;;4.33;;
16310;SDS011;8264;48.510;8.872;2022-08-03T01:27:30;4.70;;;4.00;;
16310;SDS011;8264;48.510;8.872;2022-08-03T01:30:05;6.63;;;4.47;;
16310;SDS011;8264;48.510;8.872;2022-08-03T01:32:34;5.27;;;4.40;;
16310;SDS011;8264;48.510;8.872;2022-08-03T01:35:05;4.53;;;4.00;;
16310;SDS011;8264;48.510;8.872;2022-08-03T01:37:37;5.17;;;4.17;;
16310;SDS011;8264;48.510;8.872;2022-08-03T01:40:07;4.63;;;4.13;;
16310;SDS011;8264;48.510;8.872;2022-08-03T01:42:35;4.80;;;4.27;;
16310;SDS011;8264;48.510;8.872;2022-08-03T01:45:02;6.70;;;4.50;;
16310;SDS011;8264;48.510;8.872;2022-08-03T01:47:31;5.33;;;4.83;;
16310;SDS011;8264;48.510;8.872;2022-08-03T01:49:57;5.47;;;4.97;;
16310;SDS011;8264;48.510;8.872;2022-08-03T01:52:26;6.13;;;5.10;;
16310;SDS011;8264;48.510;8.872;2022-08-03T01:54:54;5.13;;;4.40;;
16310;SDS011;8264;48.510;8.872;2022-08-03T01:57:20;4.80;;;4.20;;
16310;SDS011;8264;48.510;8.872;2022-08-03T01:59:48;5.20;;;4.70;;
16310;SDS011;8264;48.510;8.872;2022-08-03T02:02:15;6.70;;;4.33;;
16310;SDS011;8264;48.510;8.872;2022-08-03T02:04:44;5.00;;;4.60;;
16310;SDS011;8264;48.510;8.872;2022-08-03T02:07:12;5.30;;;4.90;;
16310;SDS011;8264;48.510;8.872;2022-08-03T02:09:39;6.10;;;4.50;;
16310;SDS011;8264;48.510;8.872;2022-08-03T02:12:07;5.40;;;4.90;;
16310;SDS011;8264;48.510;8.872;2022-08-03T02:14:34;6.33;;;4.50;;
16310;SDS011;8264;48.510;8.872;2022-08-03T02:17:02;5.43;;;4.47;;
16310;SDS011;8264;48.510;8.872;2022-08-03T02:19:29;5.40;;;4.90;;
16310;SDS011;8264;48.510;8.872;2022-08-03T02:21:57;4.80;;;4.30;;
16310;SDS011;8264;48.510;8.872;2022-08-03T02:24:24;4.67;;;4.27;;
16310;SDS011;8264;48.510;8.872;2022-08-03T02:26:51;5.00;;;4.50;;
16310;SDS011;8264;48.510;8.872;2022-08-03T02:29:20;7.07;;;4.83;;
16310;SDS011;8264;48.510;8.872;2022-08-03T02:31:48;5.63;;;4.60;;
16310;SDS011;8264;48.510;8.872;2022-08-03T02:34:15;4.23;;;3.90;;
16310;SDS011;8264;48.510;8.872;2022-08-03T02:36:45;6.23;;;4.70;;
16310;SDS011;8264;48.510;8.872;2022-08-03T02:39:16;4.50;;;4.10;;
16310;SDS011;8264;48.510;8.872;2022-08-03T02:41:45;5.27;;;4.60;;
16310;SDS011;8264;48.510;8.872;2022-08-03T02:44:16;4.83;;;4.20;;
16310;SDS011;8264;48.510;8.872;2022-08-03T02:46:44;7.10;;;5.13;;
16310;SDS011;8264;48.510;8.872;2022-08-03T02:49:12;5.47;;;4.97;;
16310;SDS011;8264;48.510;8.872;2022-08-03T02:51:42;4.53;;;4.13;;
16310;SDS011;8264;48.510;8.872;2022-08-03T02:54:10;6.80;;;5.03;;
16310;SDS011;8264;48.510;8.872;2022-08-03T02:56:38;5.60;;;5.10;;
16310;SDS011;8264;48.510;8.872;2022-08-03T02:59:04;7.40;;;5.00;;
16310;SDS011;8264;48.510;8.872;2022-08-03T03:01:31;5.30;;;4.83;;
16310;SDS011;8264;48.510;8.872;2022-08-03T03:03:58;5.13;;;4.63;;
16310;SDS011;8264;48.510;8.872;2022-08-03T03:06:25;5.07;;;4.57;;
16310;SDS011;8264;48.510;8.872;2022-08-03T03:08:52;7.97;;;5.30;;
16310;SDS011;8264;48.510;8.872;2022-08-03T03:11:19;5.00;;;4.57;;
16310;SDS011;8264;48.510;8.872;2022-08-03T03:13:48;5.57;;;5.00;;
16310;SDS011;8264;48.510;8.872;2022-08-03T03:16:16;5.33;;;4.20;;
16310;SDS011;8264;48.510;8.872;2022-08-03T03:18:43;5.70;;;5.13;;
16310;SDS011;8264;48.510;8.872;2022-08-03T03:21:15;4.90;;;4.50;;
16310;SDS011;8264;48.510;8.872;2022-08-03T03:23:42;5.20;;;4.70;;
16310;SDS011;8264;48.510;8.872;2022-08-03T03:26:09;6.40;;;4.90;;
16310;SDS011;8264;48.510;8.872;2022-08-03T03:28:38;5.07;;;4.57;;
16310;SDS011;8264;48.510;8.872;2022-08-03T03:31:06;7.73;;;4.50;;
16310;SDS011;8264;48.510;8.872;2022-08-03T03:33:33;5.30;;;4.70;;
16310;SDS011;8264;48.510;8.872;2022-08-03T03:35:59;5.30;;;4.80;;
16310;SDS011;8264;48.510;8.872;2022-08-03T03:38:26;5.30;;;4.80;;
16310;SDS011;8264;48.510;8.872;2022-08-03T03:40:53;5.20;;;4.77;;
16310;SDS011;8264;48.510;8.872;2022-08-03T03:43:19;4.73;;;4.20;;
16310;SDS011;8264;48.510;8.872;2022-08-03T03:45:48;5.73;;;4.73;;
16310;SDS011;8264;48.510;8.872;2022-08-03T03:48:17;4.40;;;4.00;;
16310;SDS011;8264;48.510;8.872;2022-08-03T03:50:43;4.97;;;4.57;;
16310;SDS011;8264;48.510;8.872;2022-08-03T03:53:11;5.80;;;4.90;;
16310;SDS011;8264;48.510;8.872;2022-08-03T03:55:38;4.70;;;4.30;;
16310;SDS011;8264;48.510;8.872;2022-08-03T03:58:05;5.27;;;4.70;;
16310;SDS011;8264;48.510;8.872;2022-08-03T04:00:32;4.87;;;4.43;;
16310;SDS011;8264;48.510;8.872;2022-08-03T04:02:59;4.77;;;4.37;;
16310;SDS011;8264;48.510;8.872;2022-08-03T04:05:27;4.93;;;4.53;;
16310;SDS011;8264;48.510;8.872;2022-08-03T04:08:13;7.70;;;4.97;;
16310;SDS011;8264;48.510;8.872;2022-08-03T04:11:01;5.63;;;4.43;;
16310;SDS011;8264;48.510;8.872;2022-08-03T04:13:33;7.60;;;4.90;;
16310;SDS011;8264;48.510;8.872;2022-08-03T04:16:01;5.10;;;4.70;;
16310;SDS011;8264;48.510;8.872;2022-08-03T04:18:28;6.40;;;5.70;;
16310;SDS011;8264;48.510;8.872;2022-08-03T04:20:57;5.47;;;4.97;;
16310;SDS011;8264;48.510;8.872;2022-08-03T04:23:26;6.90;;;4.47;;
16310;SDS011;8264;48.510;8.872;2022-08-03T04:25:55;5.83;;;5.20;;
16310;SDS011;8264;48.510;8.872;2022-08-03T04:28:22;5.77;;;5.23;;
16310;SDS011;8264;48.510;8.872;2022-08-03T04:30:49;5.53;;;5.03;;
16310;SDS011;8264;48.510;8.872;2022-08-03T04:33:17;6.57;;;5.73;;
16310;SDS011;8264;48.510;8.872;2022-08-03T04:35:45;6.83;;;5.47;;
16310;SDS011;8264;48.510;8.872;2022-08-03T04:38:14;6.40;;;5.40;;
16310;SDS011;8264;48.510;8.872;2022-08-03T04:40:43;5.67;;;5.17;;
16310;SDS011;8264;48.510;8.872;2022-08-03T04:43:11;5.93;;;5.33;;
16310;SDS011;8264;48.510;8.872;2022-08-03T04:45:38;7.63;;;5.40;;
16310;SDS011;8264;48.510;8.872;2022-08-03T04:48:06;5.33;;;4.83;;
16310;SDS011;8264;48.510;8.872;2022-08-03T04:50:32;7.87;;;5.20;;
16310;SDS011;8264;48.510;8.872;2022-08-03T04:52:59;8.60;;;6.23;;
16310;SDS011;8264;48.510;8.872;2022-08-03T04:55:27;5.87;;;5.27;;
16310;SDS011;8264;48.510;8.872;2022-08-03T04:57:54;7.77;;;4.73;;
16310;SDS011;8264;48.510;8.872;2022-08-03T05:00:21;5.73;;;4.73;;
16310;SDS011;8264;48.510;8.872;2022-08-03T05:02:48;4.97;;;4.47;;
16310;SDS011;8264;48.510;8.872;2022-08-03T05:05:15;6.40;;;4.87;;
16310;SDS011;8264;48.510;8.872;2022-08-03T05:07:42;6.27;;;4.33;;
16310;SDS011;8264;48.510;8.872;2022-08-03T05:10:09;6.97;;;4.83;;
16310;SDS011;8264;48.510;8.872;2022-08-03T05:12:38;4.97;;;4.57;;
16310;SDS011;8264;48.510;8.872;2022-08-03T05:15:05;6.33;;;4.67;;
16310;SDS011;8264;48.510;8.872;2022-08-03T05:17:32;6.23;;;4.67;;
16310;SDS011;8264;48.510;8.872;2022-08-03T05:19:59;5.57;;;4.47;;
16310;SDS011;8264;48.510;8.872;2022-08-03T05:22:28;6.47;;;4.90;;
16310;SDS011;8264;48.510;8.872;2022-08-03T05:24:54;6.47;;;4.73;;
16310;SDS011;8264;48.510;8.872;2022-08-03T05:27:21;4.33;;;3.93;;
16310;SDS011;8264;48.510;8.872;2022-08-03T05:29:49;5.07;;;4.57;;
16310;SDS011;8264;48.510;8.872;2022-08-03T05:32:16;8.33;;;4.60;;
16310;SDS011;8264;48.510;8.872;2022-08-03T05:34:42;16.57;;;4.93;;
16310;SDS011;8264;48.510;8.872;2022-08-03T05:37:09;4.93;;;4.53;;
16310;SDS011;8264;48.510;8.872;2022-08-03T05:39:36;6.60;;;4.57;;
16310;SDS011;8264;48.510;8.872;2022-08-03T05:42:03;7.00;;;4.20;;
16310;SDS011;8264;48.510;8.872;2022-08-03T05:44:29;5.93;;;4.00;;
16310;SDS011;8264;48.510;8.872;2022-08-03T05:46:57;6.83;;;4.30;;
16310;SDS011;8264;48.510;8.872;2022-08-03T05:49:24;6.30;;;4.07;;
16310;SDS011;8264;48.510;8.872;2022-08-03T05:51:50;5.17;;;4.27;;
16310;SDS011;8264;48.510;8.872;2022-08-03T05:54:17;6.13;;;4.43;;
16310;SDS011;8264;48.510;8.872;2022-08-03T05:56:43;6.83;;;4.00;;
16310;SDS011;8264;48.510;8.872;2022-08-03T05:59:10;8.47;;;4.67;;
16310;SDS011;8264;48.510;8.872;2022-08-03T06:01:36;4.60;;;3.87;;
16310;SDS011;8264;48.510;8.872;2022-08-03T06:04:04;22.17;;;4.87;;
16310;SDS011;8264;48.510;8.872;2022-08-03T06:06:31;12.20;;;4.40;;
16310;SDS011;8264;48.510;8.872;2022-08-03T06:08:57;13.00;;;4.50;;
16310;SDS011;8264;48.510;8.872;2022-08-03T06:11:24;9.90;;;3.67;;
16310;SDS011;8264;48.510;8.872;2022-08-03T06:13:50;8.40;;;3.90;;
16310;SDS011;8264;48.510;8.872;2022-08-03T06:16:17;4.83;;;4.03;;
16310;SDS011;8264;48.510;8.872;2022-08-03T06:18:43;5.83;;;4.03;;
16310;SDS011;8264;48.510;8.872;2022-08-03T06:21:11;10.07;;;3.90;;
16310;SDS011;8264;48.510;8.872;2022-08-03T06:23:37;5.40;;;3.70;;
16310;SDS011;8264;48.510;8.872;2022-08-03T06:26:06;7.43;;;4.33;;
16310;SDS011;8264;48.510;8.872;2022-08-03T06:28:33;6.73;;;4.13;;
16310;SDS011;8264;48.510;8.872;2022-08-03T06:30:59;4.23;;;3.83;;
16310;SDS011;8264;48.510;8.872;2022-08-03T06:33:25;5.93;;;4.23;;
16310;SDS011;8264;48.510;8.872;2022-08-03T06:35:52;5.63;;;3.57;;
16310;SDS011;8264;48.510;8.872;2022-08-03T06:38:20;4.63;;;3.53;;
16310;SDS011;8264;48.510;8.872;2022-08-03T06:40:47;7.20;;;3.40;;
16310;SDS011;8264;48.510;8.872;2022-08-03T06:43:14;5.13;;;3.77;;
16310;SDS011;8264;48.510;8.872;2022-08-03T06:45:40;4.83;;;4.10;;
16310;SDS011;8264;48.510;8.872;2022-08-03T06:48:07;4.83;;;3.60;;
16310;SDS011;8264;48.510;8.872;2022-08-03T06:50:35;8.53;;;3.47;;
16310;SDS011;8264;48.510;8.872;2022-08-03T06:53:03;8.60;;;3.40;;
16310;SDS011;8264;48.510;8.872;2022-08-03T06:55:31;4.17;;;3.77;;
16310;SDS011;8264;48.510;8.872;2022-08-03T06:57:58;6.67;;;3.40;;
16310;SDS011;8264;48.510;8.872;2022-08-03T07:00:24;4.27;;;3.17;;
16310;SDS011;8264;48.510;8.872;2022-08-03T07:02:52;4.17;;;3.37;;
16310;SDS011;8264;48.510;8.872;2022-08-03T07:05:19;6.50;;;3.60;;
16310;SDS011;8264;48.510;8.872;2022-08-03T07:07:45;5.10;;;3.73;;
16310;SDS011;8264;48.510;8.872;2022-08-03T07:10:12;3.97;;;3.37;;
16310;SDS011;8264;48.510;8.872;2022-08-03T07:12:40;4.23;;;3.60;;
16310;SDS011;8264;48.510;8.872;2022-08-03T07:15:06;3.77;;;3.30;;
16310;SDS011;8264;48.510;8.872;2022-08-03T07:17:34;4.13;;;3.40;;
16310;SDS011;8264;48.510;8.872;2022-08-03T07:20:01;6.00;;;3.80;;
16310;SDS011;8264;48.510;8.872;2022-08-03T07:22:30;7.00;;;3.90;;
16310;SDS011;8264;48.510;8.872;2022-08-03T07:24:57;5.60;;;3.17;;
16310;SDS011;8264;48.510;8.872;2022-08-03T07:27:23;4.53;;;3.13;;
16310;SDS011;8264;48.510;8.872;2022-08-03T07:29:53;4.60;;;3.00;;
16310;SDS011;8264;48.510;8.872;2022-08-03T07:32:20;5.10;;;2.67;;
16310;SDS011;8264;48.510;8.872;2022-08-03T07:34:47;5.03;;;3.30;;
16310;SDS011;8264;48.510;8.872;2022-08-03T07:37:13;3.23;;;2.93;;
16310;SDS011;8264;48.510;8.872;2022-08-03T07:39:39;5.77;;;2.90;;
16310;SDS011;8264;48.510;8.872;2022-08-03T07:42:06;3.50;;;2.60;;
16310;SDS011;8264;48.510;8.872;2022-08-03T07:44:32;4.40;;;2.87;;
16310;SDS011;8264;48.510;8.872;2022-08-03T07:47:00;2.83;;;2.60;;
16310;SDS011;8264;48.510;8.872;2022-08-03T07:49:27;4.47;;;2.77;;
16310;SDS011;8264;48.510;8.872;2022-08-03T07:51:53;4.57;;;2.70;;
16310;SDS011;8264;48.510;8.872;2022-08-03T07:54:34;4.10;;;2.60;;
16310;SDS011;8264;48.510;8.872;2022-08-03T07:57:00;2.80;;;2.60;;
16310;SDS011;8264;48.510;8.872;2022-08-03T07:59:26;3.90;;;2.47;;
16310;SDS011;8264;48.510;8.872;2022-08-03T08:01:53;5.90;;;2.63;;
16310;SDS011;8264;48.510;8.872;2022-08-03T08:04:21;3.90;;;2.47;;
16310;SDS011;8264;48.510;8.872;2022-08-03T08:06:48;2.67;;;2.40;;
16310;SDS011;8264;48.510;8.872;2022-08-03T08:09:15;3.23;;;2.00;;
16310;SDS011;8264;48.510;8.872;2022-08-03T08:11:41;5.27;;;2.30;;
16310;SDS011;8264;48.510;8.872;2022-08-03T08:14:08;3.33;;;2.33;;
16310;SDS011;8264;48.510;8.872;2022-08-03T08:16:34;2.83;;;2.10;;
16310;SDS011;8264;48.510;8.872;2022-08-03T08:19:01;2.83;;;2.17;;
16310;SDS011;8264;48.510;8.872;2022-08-03T08:21:28;2.73;;;1.60;;
16310;SDS011;8264;48.510;8.872;2022-08-03T08:23:55;1.47;;;1.37;;
16310;SDS011;8264;48.510;8.872;2022-08-03T08:26:21;1.53;;;1.43;;
16310;SDS011;8264;48.510;8.872;2022-08-03T08:28:48;1.40;;;1.30;;
16310;SDS011;8264;48.510;8.872;2022-08-03T08:31:14;1.50;;;1.30;;
16310;SDS011;8264;48.510;8.872;2022-08-03T08:33:41;2.37;;;1.50;;
16310;SDS011;8264;48.510;8.872;2022-08-03T08:36:07;2.13;;;1.40;;
16310;SDS011;8264;48.510;8.872;2022-08-03T08:38:35;2.73;;;1.50;;
16310;SDS011;8264;48.510;8.872;2022-08-03T08:41:01;3.73;;;1.47;;
16310;SDS011;8264;48.510;8.872;2022-08-03T08:43:28;2.33;;;1.60;;
16310;SDS011;8264;48.510;8.872;2022-08-03T08:45:54;1.57;;;1.43;;
16310;SDS011;8264;48.510;8.872;2022-08-03T08:48:23;3.80;;;1.70;;
16310;SDS011;8264;48.510;8.872;2022-08-03T08:50:51;1.77;;;1.67;;
16310;SDS011;8264;48.510;8.872;2022-08-03T08:53:18;2.87;;;1.70;;
16310;SDS011;8264;48.510;8.872;2022-08-03T08:55:46;1.87;;;1.63;;
16310;SDS011;8264;48.510;8.872;2022-08-03T08:58:13;3.40;;;1.63;;
16310;SDS011;8264;48.510;8.872;2022-08-03T09:00:43;1.93;;;1.50;;
16310;SDS011;8264;48.510;8.872;2022-08-03T09:03:12;3.30;;;1.60;;
16310;SDS011;8264;48.510;8.872;2022-08-03T09:05:40;1.80;;;1.60;;
16310;SDS011;8264;48.510;8.872;2022-08-03T09:08:07;5.10;;;1.80;;
16310;SDS011;8264;48.510;8.872;2022-08-03T09:10:34;1.70;;;1.60;;
16310;SDS011;8264;48.510;8.872;2022-08-03T09:13:02;1.90;;;1.47;;
16310;SDS011;8264;48.510;8.872;2022-08-03T09:15:29;1.50;;;1.40;;
16310;SDS011;8264;48.510;8.872;2022-08-03T09:17:57;3.10;;;1.50;;
16310;SDS011;8264;48.510;8.872;2022-08-03T09:20:25;1.97;;;1.67;;
16310;SDS011;8264;48.510;8.872;2022-08-03T09:22:56;1.40;;;1.30;;
16310;SDS011;8264;48.510;8.872;2022-08-03T09:25:27;2.47;;;1.50;;
16310;SDS011;8264;48.510;8.872;2022-08-03T09:28:02;1.80;;;1.57;;
16310;SDS011;8264;48.510;8.872;2022-08-03T09:30:31;1.97;;;1.60;;
16310;SDS011;8264;48.510;8.872;2022-08-03T09:32:59;2.23;;;1.60;;
16310;SDS011;8264;48.510;8.872;2022-08-03T09:35:26;4.07;;;1.57;;
16310;SDS011;8264;48.510;8.872;2022-08-03T09:38:07;3.00;;;1.43;;
16310;SDS011;8264;48.510;8.872;2022-08-03T09:40:34;1.90;;;1.70;;
16310;SDS011;8264;48.510;8.872;2022-08-03T09:43:01;3.83;;;1.80;;
16310;SDS011;8264;48.510;8.872;2022-08-03T09:45:29;2.50;;;1.40;;
16310;SDS011;8264;48.510;8.872;2022-08-03T09:47:55;1.43;;;1.33;;
16310;SDS011;8264;48.510;8.872;2022-08-03T09:50:23;3.10;;;1.63;;
16310;SDS011;8264;48.510;8.872;2022-08-03T09:52:50;1.63;;;1.37;;
16310;SDS011;8264;48.510;8.872;2022-08-03T09:55:17;2.70;;;1.43;;
16310;SDS011;8264;48.510;8.872;2022-08-03T09:57:45;2.47;;;1.60;;
16310;SDS011;8264;48.510;8.872;2022-08-03T10:00:13;2.80;;;1.40;;
16310;SDS011;8264;48.510;8.872;2022-08-03T10:02:43;1.70;;;1.37;;
16310;SDS011;8264;48.510;8.872;2022-08-03T10:05:10;1.37;;;1.27;;
16310;SDS011;8264;48.510;8.872;2022-08-03T10:07:40;1.53;;;1.33;;
16310;SDS011;8264;48.510;8.872;2022-08-03T10:10:08;2.70;;;1.60;;
16310;SDS011;8264;48.510;8.872;2022-08-03T10:12:35;1.73;;;1.30;;
16310;SDS011;8264;48.510;8.872;2022-08-03T10:15:02;1.80;;;1.40;;
16310;SDS011;8264;48.510;8.872;2022-08-03T10:17:29;1.80;;;1.53;;
16310;SDS011;8264;48.510;8.872;2022-08-03T10:19:57;1.83;;;1.30;;
16310;SDS011;8264;48.510;8.872;2022-08-03T10:22:25;2.30;;;1.33;;
16310;SDS011;8264;48.510;8.872;2022-08-03T10:24:54;2.50;;;1.43;;
16310;SDS011;8264;48.510;8.872;2022-08-03T10:27:22;2.13;;;1.50;;
16310;SDS011;8264;48.510;8.872;2022-08-03T10:29:50;1.80;;;1.40;;
16310;SDS011;8264;48.510;8.872;2022-08-03T10:32:20;2.63;;;1.40;;
16310;SDS011;8264;48.510;8.872;2022-08-03T10:34:48;1.40;;;1.20;;
16310;SDS011;8264;48.510;8.872;2022-08-03T10:37:17;1.77;;;1.40;;
16310;SDS011;8264;48.510;8.872;2022-08-03T10:39:44;1.50;;;1.40;;
16310;SDS011;8264;48.510;8.872;2022-08-03T10:42:19;2.37;;;1.93;;
16310;SDS011;8264;48.510;8.872;2022-08-03T10:44:47;1.77;;;1.57;;
16310;SDS011;8264;48.510;8.872;2022-08-03T10:47:16;2.22;;;1.48;;
16310;SDS011;8264;48.510;8.872;2022-08-03T10:49:43;2.08;;;1.40;;
16310;SDS011;8264;48.510;8.872;2022-08-03T10:52:10;2.03;;;1.58;;
16310;SDS011;8264;48.510;8.872;2022-08-03T10:54:38;1.70;;;1.60;;
16310;SDS011;8264;48.510;8.872;2022-08-03T11:00:18;3.20;;;1.58;;
16310;SDS011;8264;48.510;8.872;2022-08-03T11:03:04;2.15;;;1.50;;
16310;SDS011;8264;48.510;8.872;2022-08-03T11:05:36;1.40;;;1.30;;
16310;SDS011;8264;48.510;8.872;2022-08-03T11:10:54;2.43;;;1.37;;
16310;SDS011;8264;48.510;8.872;2022-08-03T11:13:23;1.70;;;1.57;;
16310;SDS011;8264;48.510;8.872;2022-08-03T11:15:54;1.93;;;1.50;;
16310;SDS011;8264;48.510;8.872;2022-08-03T11:18:21;2.33;;;1.70;;
16310;SDS011;8264;48.510;8.872;2022-08-03T11:20:49;4.60;;;1.50;;
16310;SDS011;8264;48.510;8.872;2022-08-03T11:23:17;2.60;;;1.33;;
16310;SDS011;8264;48.510;8.872;2022-08-03T11:28:35;1.65;;;1.27;;
16310;SDS011;8264;48.510;8.872;2022-08-03T11:34:02;2.03;;;1.60;;
16310;SDS011;8264;48.510;8.872;2022-08-03T11:36:29;2.15;;;1.40;;
16310;SDS011;8264;48.510;8.872;2022-08-03T11:41:42;1.75;;;1.30;;
16310;SDS011;8264;48.510;8.872;2022-08-03T11:44:08;2.60;;;1.50;;
16310;SDS011;8264;48.510;8.872;2022-08-03T11:46:35;2.10;;;1.63;;
16310;SDS011;8264;48.510;8.872;2022-08-03T11:49:03;3.83;;;1.48;;
16310;SDS011;8264;48.510;8.872;2022-08-03T11:51:31;1.77;;;1.40;;
16310;SDS011;8264;48.510;8.872;2022-08-03T11:53:58;3.92;;;1.42;;
16310;SDS011;8264;48.510;8.872;2022-08-03T11:56:26;2.55;;;1.40;;
16310;SDS011;8264;48.510;8.872;2022-08-03T11:58:55;1.52;;;1.42;;
16310;SDS011;8264;48.510;8.872;2022-08-03T12:01:23;2.30;;;1.08;;
16310;SDS011;8264;48.510;8.872;2022-08-03T12:03:50;1.83;;;1.20;;
16310;SDS011;8264;48.510;8.872;2022-08-03T12:06:17;1.60;;;1.42;;
16310;SDS011;8264;48.510;8.872;2022-08-03T12:08:44;1.77;;;1.58;;
16310;SDS011;8264;48.510;8.872;2022-08-03T12:11:12;1.73;;;1.60;;
16310;SDS011;8264;48.510;8.872;2022-08-03T12:13:40;3.83;;;1.48;;
16310;SDS011;8264;48.510;8.872;2022-08-03T12:16:09;11.55;;;7.82;;
16310;SDS011;8264;48.510;8.872;2022-08-03T12:18:35;18.55;;;15.43;;
16310;SDS011;8264;48.510;8.872;2022-08-03T12:21:03;8.57;;;7.30;;
16310;SDS011;8264;48.510;8.872;2022-08-03T12:23:31;18.83;;;13.70;;
16310;SDS011;8264;48.510;8.872;2022-08-03T12:26:00;3.25;;;2.85;;
16310;SDS011;8264;48.510;8.872;2022-08-03T12:28:27;4.78;;;3.15;;
16310;SDS011;8264;48.510;8.872;2022-08-03T12:30:53;2.78;;;1.50;;
16310;SDS011;8264;48.510;8.872;2022-08-03T12:33:22;5.93;;;4.10;;
16310;SDS011;8264;48.510;8.872;2022-08-03T12:36:00;1.65;;;1.40;;
16310;SDS011;8264;48.510;8.872;2022-08-03T12:38:29;2.38;;;1.50;;
16310;SDS011;8264;48.510;8.872;2022-08-03T12:41:00;5.88;;;2.10;;
16310;SDS011;8264;48.510;8.872;2022-08-03T12:43:27;5.82;;;4.10;;
16310;SDS011;8264;48.510;8.872;2022-08-03T12:46:05;2.50;;;2.28;;
16310;SDS011;8264;48.510;8.872;2022-08-03T12:48:34;6.38;;;3.17;;
16310;SDS011;8264;48.510;8.872;2022-08-03T12:51:07;1.65;;;1.55;;
16310;SDS011;8264;48.510;8.872;2022-08-03T12:53:34;2.70;;;1.30;;
16310;SDS011;8264;48.510;8.872;2022-08-03T12:56:01;1.40;;;1.30;;
16310;SDS011;8264;48.510;8.872;2022-08-03T12:58:29;2.00;;;1.42;;
16310;SDS011;8264;48.510;8.872;2022-08-03T13:00:57;1.45;;;1.30;;
16310;SDS011;8264;48.510;8.872;2022-08-03T13:03:24;3.22;;;2.13;;
16310;SDS011;8264;48.510;8.872;2022-08-03T13:05:52;1.42;;;1.30;;
16310;SDS011;8264;48.510;8.872;2022-08-03T13:08:18;1.88;;;1.73;;
16310;SDS011;8264;48.510;8.872;2022-08-03T13:10:45;2.72;;;1.20;;
16310;SDS011;8264;48.510;8.872;2022-08-03T13:13:12;1.65;;;1.42;;
16310;SDS011;8264;48.510;8.872;2022-08-03T13:15:38;1.40;;;1.30;;
16310;SDS011;8264;48.510;8.872;2022-08-03T13:18:05;3.25;;;2.85;;
16310;SDS011;8264;48.510;8.872;2022-08-03T13:20:31;1.55;;;1.30;;
16310;SDS011;8264;48.510;8.872;2022-08-03T13:23:00;3.60;;;1.88;;
16310;SDS011;8264;48.510;8.872;2022-08-03T13:25:26;3.08;;;1.30;;
16310;SDS011;8264;48.510;8.872;2022-08-03T13:27:53;2.03;;;1.75;;
16310;SDS011;8264;48.510;8.872;2022-08-03T13:30:19;3.00;;;2.70;;
16310;SDS011;8264;48.510;8.872;2022-08-03T13:32:46;2.67;;;2.00;;
16310;SDS011;8264;48.510;8.872;2022-08-03T13:35:12;2.28;;;1.60;;
16310;SDS011;8264;48.510;8.872;2022-08-03T13:37:39;1.52;;;1.42;;
16310;SDS011;8264;48.510;8.872;2022-08-03T13:40:07;3.38;;;1.50;;
16310;SDS011;8264;48.510;8.872;2022-08-03T13:42:34;3.28;;;1.58;;
16310;SDS011;8264;48.510;8.872;2022-08-03T13:45:01;3.28;;;1.20;;
16310;SDS011;8264;48.510;8.872;2022-08-03T13:47:28;6.07;;;1.40;;
16310;SDS011;8264;48.510;8.872;2022-08-03T13:49:55;3.72;;;1.30;;
16310;SDS011;8264;48.510;8.872;2022-08-03T13:52:21;1.88;;;1.70;;
16310;SDS011;8264;48.510;8.872;2022-08-03T13:54:48;2.10;;;1.75;;
16310;SDS011;8264;48.510;8.872;2022-08-03T13:57:15;3.55;;;1.20;;
16310;SDS011;8264;48.510;8.872;2022-08-03T13:59:42;3.67;;;1.60;;
16310;SDS011;8264;48.510;8.872;2022-08-03T14:02:09;1.70;;;1.30;;
16310;SDS011;8264;48.510;8.872;2022-08-03T14:04:35;6.80;;;1.48;;
16310;SDS011;8264;48.510;8.872;2022-08-03T14:07:02;3.35;;;1.48;;
16310;SDS011;8264;48.510;8.872;2022-08-03T14:09:28;1.65;;;1.23;;
16310;SDS011;8264;48.510;8.872;2022-08-03T14:11:55;1.67;;;1.20;;
16310;SDS011;8264;48.510;8.872;2022-08-03T14:14:23;2.28;;;1.30;;
16310;SDS011;8264;48.510;8.872;2022-08-03T14:16:49;3.30;;;1.65;;
16310;SDS011;8264;48.510;8.872;2022-08-03T14:19:15;1.83;;;1.40;;
16310;SDS011;8264;48.510;8.872;2022-08-03T14:21:42;1.75;;;1.48;;
16310;SDS011;8264;48.510;8.872;2022-08-03T14:24:09;4.15;;;1.33;;
16310;SDS011;8264;48.510;8.872;2022-08-03T14:26:35;3.20;;;1.27;;
16310;SDS011;8264;48.510;8.872;2022-08-03T14:29:02;1.77;;;1.25;;
16310;SDS011;8264;48.510;8.872;2022-08-03T14:31:31;1.98;;;1.27;;
16310;SDS011;8264;48.510;8.872;2022-08-03T14:33:57;1.20;;;1.10;;
16310;SDS011;8264;48.510;8.872;2022-08-03T14:36:24;4.03;;;1.65;;
16310;SDS011;8264;48.510;8.872;2022-08-03T14:38:50;1.33;;;1.23;;
16310;SDS011;8264;48.510;8.872;2022-08-03T14:41:17;2.95;;;1.40;;
16310;SDS011;8264;48.510;8.872;2022-08-03T14:43:43;2.90;;;1.30;;
16310;SDS011;8264;48.510;8.872;2022-08-03T14:46:10;1.58;;;1.48;;
16310;SDS011;8264;48.510;8.872;2022-08-03T14:48:38;2.83;;;1.40;;
16310;SDS011;8264;48.510;8.872;2022-08-03T14:51:04;2.25;;;1.40;;
16310;SDS011;8264;48.510;8.872;2022-08-03T14:53:31;3.95;;;1.15;;
16310;SDS011;8264;48.510;8.872;2022-08-03T14:55:59;2.00;;;1.20;;
16310;SDS011;8264;48.510;8.872;2022-08-03T14:58:25;3.05;;;1.30;;
16310;SDS011;8264;48.510;8.872;2022-08-03T15:00:52;2.08;;;1.30;;
16310;SDS011;8264;48.510;8.872;2022-08-03T15:03:20;1.45;;;1.30;;
16310;SDS011;8264;48.510;8.872;2022-08-03T15:05:50;1.35;;;1.10;;
16310;SDS011;8264;48.510;8.872;2022-08-03T15:08:17;2.95;;;1.50;;
16310;SDS011;8264;48.510;8.872;2022-08-03T15:10:43;1.83;;;1.17;;
16310;SDS011;8264;48.510;8.872;2022-08-03T15:13:10;1.75;;;1.30;;
16310;SDS011;8264;48.510;8.872;2022-08-03T15:15:36;2.20;;;1.35;;
16310;SDS011;8264;48.510;8.872;2022-08-03T15:18:03;6.72;;;1.55;;